sensor_id;sensor_type;location;lat;lon;timestamp;P1;durP1;ratioP1;P2;durP2;ratioP2
47960;SDS011;33721;48.852;9.936;2023-05-07T00:00:37;10.32;;;5.32;;
47960;SDS011;33721;48.852;9.936;2023-05-07T00:03:03;10.38;;;4.72;;
47960;SDS011;33721;48.852;9.936;2023-05-07T00:05:28;7.75;;;4.70;;
47960;SDS011;33721;48.852;9.936;2023-05-07T00:07:54;10.52;;;4.97;;
47960;SDS011;33721;48.852;9.936;2023-05-07T00:10:20;8.77;;;4.93;;
47960;SDS011;33721;48.852;9.936;2023-05-07T00:12:45;12.15;;;5.05;;
47960;SDS011;33721;48.852;9.936;2023-05-07T00:15:11;11.35;;;4.97;;
47960;SDS011;33721;48.852;9.936;2023-05-07T00:17:37;11.07;;;5.03;;
47960;SDS011;33721;48.852;9.936;2023-05-07T00:20:03;12.98;;;5.80;;
47960;SDS011;33721;48.852;9.936;2023-05-07T00:22:30;10.57;;;5.13;;
47960;SDS011;33721;48.852;9.936;2023-05-07T00:24:57;11.52;;;5.03;;
47960;SDS011;33721;48.852;9.936;2023-05-07T00:27:23;11.18;;;5.43;;
47960;SDS011;33721;48.852;9.936;2023-05-07T00:29:49;8.13;;;4.85;;
47960;SDS011;33721;48.852;9.936;2023-05-07T00:32:15;10.50;;;5.03;;
47960;SDS011;33721;48.852;9.936;2023-05-07T00:34:41;12.30;;;5.07;;
47960;SDS011;33721;48.852;9.936;2023-05-07T00:37:07;8.90;;;5.07;;
47960;SDS011;33721;48.852;9.936;2023-05-07T00:39:33;11.35;;;5.13;;
47960;SDS011;33721;48.852;9.936;2023-05-07T00:41:59;8.98;;;5.22;;
47960;SDS011;33721;48.852;9.936;2023-05-07T00:44:25;10.15;;;4.80;;
47960;SDS011;33721;48.852;9.936;2023-05-07T00:46:51;13.02;;;5.00;;
47960;SDS011;33721;48.852;9.936;2023-05-07T00:49:18;9.63;;;4.85;;
47960;SDS011;33721;48.852;9.936;2023-05-07T00:51:45;9.32;;;5.10;;
47960;SDS011;33721;48.852;9.936;2023-05-07T00:54:11;10.82;;;5.03;;
47960;SDS011;33721;48.852;9.936;2023-05-07T00:56:38;12.65;;;5.05;;
47960;SDS011;33721;48.852;9.936;2023-05-07T00:59:04;11.65;;;5.07;;
47960;SDS011;33721;48.852;9.936;2023-05-07T01:01:31;12.75;;;5.25;;
47960;SDS011;33721;48.852;9.936;2023-05-07T01:03:57;8.95;;;5.13;;
47960;SDS011;33721;48.852;9.936;2023-05-07T01:06:23;15.25;;;5.75;;
47960;SDS011;33721;48.852;9.936;2023-05-07T01:08:51;11.82;;;6.15;;
47960;SDS011;33721;48.852;9.936;2023-05-07T01:11:18;10.75;;;5.53;;
47960;SDS011;33721;48.852;9.936;2023-05-07T01:13:47;12.20;;;6.05;;
47960;SDS011;33721;48.852;9.936;2023-05-07T01:16:13;11.38;;;5.53;;
47960;SDS011;33721;48.852;9.936;2023-05-07T01:18:39;8.48;;;5.20;;
47960;SDS011;33721;48.852;9.936;2023-05-07T01:21:05;10.70;;;5.05;;
47960;SDS011;33721;48.852;9.936;2023-05-07T01:23:32;10.05;;;5.32;;
47960;SDS011;33721;48.852;9.936;2023-05-07T01:26:00;8.25;;;5.13;;
47960;SDS011;33721;48.852;9.936;2023-05-07T01:28:26;12.77;;;5.75;;
47960;SDS011;33721;48.852;9.936;2023-05-07T01:30:54;12.88;;;5.57;;
47960;SDS011;33721;48.852;9.936;2023-05-07T01:33:25;11.10;;;5.70;;
47960;SDS011;33721;48.852;9.936;2023-05-07T01:35:53;9.18;;;5.05;;
47960;SDS011;33721;48.852;9.936;2023-05-07T01:38:20;12.27;;;5.72;;
47960;SDS011;33721;48.852;9.936;2023-05-07T01:40:47;12.35;;;5.65;;
47960;SDS011;33721;48.852;9.936;2023-05-07T01:43:13;8.75;;;5.10;;
47960;SDS011;33721;48.852;9.936;2023-05-07T01:45:39;13.00;;;5.45;;
47960;SDS011;33721;48.852;9.936;2023-05-07T01:48:09;11.68;;;5.28;;
47960;SDS011;33721;48.852;9.936;2023-05-07T01:50:35;9.93;;;5.28;;
47960;SDS011;33721;48.852;9.936;2023-05-07T01:53:01;12.25;;;5.13;;
47960;SDS011;33721;48.852;9.936;2023-05-07T01:55:27;9.57;;;5.38;;
47960;SDS011;33721;48.852;9.936;2023-05-07T01:57:53;11.60;;;5.82;;
47960;SDS011;33721;48.852;9.936;2023-05-07T02:00:18;12.80;;;5.72;;
47960;SDS011;33721;48.852;9.936;2023-05-07T02:02:44;9.13;;;5.10;;
47960;SDS011;33721;48.852;9.936;2023-05-07T02:05:10;10.50;;;5.65;;
47960;SDS011;33721;48.852;9.936;2023-05-07T02:07:36;11.00;;;4.97;;
47960;SDS011;33721;48.852;9.936;2023-05-07T02:10:01;12.65;;;5.35;;
47960;SDS011;33721;48.852;9.936;2023-05-07T02:12:28;11.10;;;4.90;;
47960;SDS011;33721;48.852;9.936;2023-05-07T02:14:53;16.63;;;5.43;;
47960;SDS011;33721;48.852;9.936;2023-05-07T02:17:19;15.75;;;4.88;;
47960;SDS011;33721;48.852;9.936;2023-05-07T02:19:45;10.77;;;5.20;;
47960;SDS011;33721;48.852;9.936;2023-05-07T02:22:10;13.52;;;4.90;;
47960;SDS011;33721;48.852;9.936;2023-05-07T02:24:36;13.15;;;5.20;;
47960;SDS011;33721;48.852;9.936;2023-05-07T02:27:02;11.70;;;5.90;;
47960;SDS011;33721;48.852;9.936;2023-05-07T02:29:28;10.98;;;5.30;;
47960;SDS011;33721;48.852;9.936;2023-05-07T02:31:54;11.32;;;5.28;;
47960;SDS011;33721;48.852;9.936;2023-05-07T02:34:20;8.05;;;5.20;;
47960;SDS011;33721;48.852;9.936;2023-05-07T02:36:46;11.57;;;5.35;;
47960;SDS011;33721;48.852;9.936;2023-05-07T02:39:12;9.80;;;5.47;;
47960;SDS011;33721;48.852;9.936;2023-05-07T02:41:38;8.02;;;5.20;;
47960;SDS011;33721;48.852;9.936;2023-05-07T02:44:04;11.77;;;4.88;;
47960;SDS011;33721;48.852;9.936;2023-05-07T02:46:30;13.18;;;5.15;;
47960;SDS011;33721;48.852;9.936;2023-05-07T02:48:56;10.27;;;4.63;;
47960;SDS011;33721;48.852;9.936;2023-05-07T02:51:21;8.70;;;4.72;;
47960;SDS011;33721;48.852;9.936;2023-05-07T02:53:47;9.63;;;5.10;;
47960;SDS011;33721;48.852;9.936;2023-05-07T02:56:13;12.30;;;4.57;;
47960;SDS011;33721;48.852;9.936;2023-05-07T02:58:39;8.70;;;4.78;;
47960;SDS011;33721;48.852;9.936;2023-05-07T03:01:05;10.82;;;4.93;;
47960;SDS011;33721;48.852;9.936;2023-05-07T03:03:31;9.20;;;4.65;;
47960;SDS011;33721;48.852;9.936;2023-05-07T03:05:57;11.00;;;4.85;;
47960;SDS011;33721;48.852;9.936;2023-05-07T03:08:23;8.75;;;4.47;;
47960;SDS011;33721;48.852;9.936;2023-05-07T03:10:49;10.93;;;5.32;;
47960;SDS011;33721;48.852;9.936;2023-05-07T03:13:14;10.57;;;5.20;;
47960;SDS011;33721;48.852;9.936;2023-05-07T03:15:40;9.52;;;5.28;;
47960;SDS011;33721;48.852;9.936;2023-05-07T03:18:06;10.50;;;5.22;;
47960;SDS011;33721;48.852;9.936;2023-05-07T03:20:31;10.60;;;5.72;;
47960;SDS011;33721;48.852;9.936;2023-05-07T03:22:57;11.35;;;4.68;;
47960;SDS011;33721;48.852;9.936;2023-05-07T03:25:23;12.07;;;5.18;;
47960;SDS011;33721;48.852;9.936;2023-05-07T03:27:49;9.13;;;5.15;;
47960;SDS011;33721;48.852;9.936;2023-05-07T03:30:14;13.30;;;5.57;;
47960;SDS011;33721;48.852;9.936;2023-05-07T03:32:40;8.73;;;5.28;;
47960;SDS011;33721;48.852;9.936;2023-05-07T03:35:06;8.30;;;5.05;;
47960;SDS011;33721;48.852;9.936;2023-05-07T03:37:32;11.13;;;5.13;;
47960;SDS011;33721;48.852;9.936;2023-05-07T03:39:58;10.25;;;4.55;;
47960;SDS011;33721;48.852;9.936;2023-05-07T03:42:23;7.60;;;4.80;;
47960;SDS011;33721;48.852;9.936;2023-05-07T03:44:50;15.90;;;4.70;;
47960;SDS011;33721;48.852;9.936;2023-05-07T03:47:16;10.90;;;5.20;;
47960;SDS011;33721;48.852;9.936;2023-05-07T03:49:41;8.80;;;5.03;;
47960;SDS011;33721;48.852;9.936;2023-05-07T03:52:07;14.90;;;6.13;;
47960;SDS011;33721;48.852;9.936;2023-05-07T03:54:32;14.07;;;6.38;;
47960;SDS011;33721;48.852;9.936;2023-05-07T03:56:58;15.45;;;6.32;;
47960;SDS011;33721;48.852;9.936;2023-05-07T03:59:24;21.50;;;7.18;;
47960;SDS011;33721;48.852;9.936;2023-05-07T04:01:49;13.55;;;6.93;;
47960;SDS011;33721;48.852;9.936;2023-05-07T04:04:15;12.88;;;6.20;;
47960;SDS011;33721;48.852;9.936;2023-05-07T04:06:41;15.77;;;6.45;;
47960;SDS011;33721;48.852;9.936;2023-05-07T04:09:07;11.50;;;6.68;;
47960;SDS011;33721;48.852;9.936;2023-05-07T04:11:32;14.27;;;6.75;;
47960;SDS011;33721;48.852;9.936;2023-05-07T04:13:58;12.35;;;5.55;;
47960;SDS011;33721;48.852;9.936;2023-05-07T04:16:24;14.45;;;5.55;;
47960;SDS011;33721;48.852;9.936;2023-05-07T04:18:50;10.63;;;5.72;;
47960;SDS011;33721;48.852;9.936;2023-05-07T04:21:16;10.77;;;5.00;;
47960;SDS011;33721;48.852;9.936;2023-05-07T04:23:46;12.30;;;5.72;;
47960;SDS011;33721;48.852;9.936;2023-05-07T04:26:12;7.82;;;5.28;;
47960;SDS011;33721;48.852;9.936;2023-05-07T04:28:39;12.90;;;5.70;;
47960;SDS011;33721;48.852;9.936;2023-05-07T04:31:05;9.93;;;5.60;;
47960;SDS011;33721;48.852;9.936;2023-05-07T04:33:31;11.65;;;5.55;;
47960;SDS011;33721;48.852;9.936;2023-05-07T04:35:58;14.85;;;5.50;;
47960;SDS011;33721;48.852;9.936;2023-05-07T04:38:28;9.35;;;5.35;;
47960;SDS011;33721;48.852;9.936;2023-05-07T04:40:54;10.23;;;4.82;;
47960;SDS011;33721;48.852;9.936;2023-05-07T04:43:21;11.18;;;4.85;;
47960;SDS011;33721;48.852;9.936;2023-05-07T04:45:46;8.32;;;5.10;;
47960;SDS011;33721;48.852;9.936;2023-05-07T04:48:14;13.63;;;5.53;;
47960;SDS011;33721;48.852;9.936;2023-05-07T04:50:41;12.20;;;4.95;;
47960;SDS011;33721;48.852;9.936;2023-05-07T04:53:06;10.50;;;5.30;;
47960;SDS011;33721;48.852;9.936;2023-05-07T04:55:32;9.43;;;4.85;;
47960;SDS011;33721;48.852;9.936;2023-05-07T04:57:57;12.63;;;5.25;;
47960;SDS011;33721;48.852;9.936;2023-05-07T05:00:25;9.65;;;5.40;;
47960;SDS011;33721;48.852;9.936;2023-05-07T05:02:51;10.88;;;5.20;;
47960;SDS011;33721;48.852;9.936;2023-05-07T05:05:16;12.73;;;5.60;;
47960;SDS011;33721;48.852;9.936;2023-05-07T05:07:42;9.18;;;5.15;;
47960;SDS011;33721;48.852;9.936;2023-05-07T05:10:08;10.63;;;4.60;;
47960;SDS011;33721;48.852;9.936;2023-05-07T05:12:33;7.97;;;4.80;;
47960;SDS011;33721;48.852;9.936;2023-05-07T05:14:59;10.70;;;5.20;;
47960;SDS011;33721;48.852;9.936;2023-05-07T05:17:25;11.40;;;5.00;;
47960;SDS011;33721;48.852;9.936;2023-05-07T05:19:50;10.65;;;5.30;;
47960;SDS011;33721;48.852;9.936;2023-05-07T05:22:16;8.60;;;5.13;;
47960;SDS011;33721;48.852;9.936;2023-05-07T05:24:41;10.52;;;5.10;;
47960;SDS011;33721;48.852;9.936;2023-05-07T05:27:07;8.68;;;4.70;;
47960;SDS011;33721;48.852;9.936;2023-05-07T05:29:33;10.57;;;5.20;;
47960;SDS011;33721;48.852;9.936;2023-05-07T05:31:58;11.02;;;5.10;;
47960;SDS011;33721;48.852;9.936;2023-05-07T05:34:24;8.68;;;5.05;;
47960;SDS011;33721;48.852;9.936;2023-05-07T05:36:50;11.07;;;5.70;;
47960;SDS011;33721;48.852;9.936;2023-05-07T05:39:15;7.95;;;5.68;;
47960;SDS011;33721;48.852;9.936;2023-05-07T05:41:41;9.05;;;5.13;;
47960;SDS011;33721;48.852;9.936;2023-05-07T05:44:07;9.07;;;5.20;;
47960;SDS011;33721;48.852;9.936;2023-05-07T05:46:33;8.95;;;5.07;;
47960;SDS011;33721;48.852;9.936;2023-05-07T05:48:58;8.40;;;4.90;;
47960;SDS011;33721;48.852;9.936;2023-05-07T05:51:24;6.70;;;4.57;;
47960;SDS011;33721;48.852;9.936;2023-05-07T05:53:50;15.98;;;5.32;;
47960;SDS011;33721;48.852;9.936;2023-05-07T05:56:15;10.75;;;5.00;;
47960;SDS011;33721;48.852;9.936;2023-05-07T05:58:41;12.90;;;5.53;;
47960;SDS011;33721;48.852;9.936;2023-05-07T06:01:07;7.38;;;5.05;;
47960;SDS011;33721;48.852;9.936;2023-05-07T06:03:33;7.72;;;5.07;;
47960;SDS011;33721;48.852;9.936;2023-05-07T06:05:59;11.13;;;5.80;;
47960;SDS011;33721;48.852;9.936;2023-05-07T06:08:25;9.32;;;5.22;;
47960;SDS011;33721;48.852;9.936;2023-05-07T06:10:53;8.30;;;5.60;;
47960;SDS011;33721;48.852;9.936;2023-05-07T06:13:19;10.18;;;6.00;;
47960;SDS011;33721;48.852;9.936;2023-05-07T06:15:44;9.02;;;5.28;;
47960;SDS011;33721;48.852;9.936;2023-05-07T06:18:10;12.95;;;6.47;;
47960;SDS011;33721;48.852;9.936;2023-05-07T06:20:36;10.93;;;6.60;;
47960;SDS011;33721;48.852;9.936;2023-05-07T06:23:01;7.82;;;5.22;;
47960;SDS011;33721;48.852;9.936;2023-05-07T06:25:27;9.73;;;5.85;;
47960;SDS011;33721;48.852;9.936;2023-05-07T06:27:52;10.32;;;6.20;;
47960;SDS011;33721;48.852;9.936;2023-05-07T06:30:18;11.00;;;5.75;;
47960;SDS011;33721;48.852;9.936;2023-05-07T06:32:44;10.27;;;5.50;;
47960;SDS011;33721;48.852;9.936;2023-05-07T06:35:09;7.13;;;4.80;;
47960;SDS011;33721;48.852;9.936;2023-05-07T06:37:35;12.68;;;5.57;;
47960;SDS011;33721;48.852;9.936;2023-05-07T06:40:03;10.70;;;4.97;;
47960;SDS011;33721;48.852;9.936;2023-05-07T06:42:30;8.52;;;5.28;;
47960;SDS011;33721;48.852;9.936;2023-05-07T06:44:55;7.35;;;5.30;;
47960;SDS011;33721;48.852;9.936;2023-05-07T06:47:21;7.75;;;4.65;;
47960;SDS011;33721;48.852;9.936;2023-05-07T06:49:47;6.63;;;4.35;;
47960;SDS011;33721;48.852;9.936;2023-05-07T06:52:12;6.80;;;4.38;;
47960;SDS011;33721;48.852;9.936;2023-05-07T06:54:38;10.43;;;4.55;;
47960;SDS011;33721;48.852;9.936;2023-05-07T06:57:03;8.10;;;4.57;;
47960;SDS011;33721;48.852;9.936;2023-05-07T06:59:29;6.68;;;4.50;;
47960;SDS011;33721;48.852;9.936;2023-05-07T07:01:55;8.55;;;4.68;;
47960;SDS011;33721;48.852;9.936;2023-05-07T07:04:20;5.75;;;4.07;;
47960;SDS011;33721;48.852;9.936;2023-05-07T07:06:48;8.85;;;4.00;;
47960;SDS011;33721;48.852;9.936;2023-05-07T07:09:13;8.55;;;4.07;;
47960;SDS011;33721;48.852;9.936;2023-05-07T07:11:39;7.47;;;3.90;;
47960;SDS011;33721;48.852;9.936;2023-05-07T07:14:04;6.18;;;3.78;;
47960;SDS011;33721;48.852;9.936;2023-05-07T07:16:30;7.18;;;3.65;;
47960;SDS011;33721;48.852;9.936;2023-05-07T07:18:56;8.05;;;3.67;;
47960;SDS011;33721;48.852;9.936;2023-05-07T07:21:22;6.07;;;3.63;;
47960;SDS011;33721;48.852;9.936;2023-05-07T07:23:47;6.35;;;3.47;;
47960;SDS011;33721;48.852;9.936;2023-05-07T07:26:13;5.82;;;3.70;;
47960;SDS011;33721;48.852;9.936;2023-05-07T07:28:42;6.80;;;3.80;;
47960;SDS011;33721;48.852;9.936;2023-05-07T07:31:09;6.47;;;3.33;;
47960;SDS011;33721;48.852;9.936;2023-05-07T07:33:34;7.63;;;4.28;;
47960;SDS011;33721;48.852;9.936;2023-05-07T07:36:00;4.70;;;2.88;;
47960;SDS011;33721;48.852;9.936;2023-05-07T07:38:26;5.10;;;2.60;;
47960;SDS011;33721;48.852;9.936;2023-05-07T07:40:51;5.85;;;3.08;;
47960;SDS011;33721;48.852;9.936;2023-05-07T07:43:17;3.15;;;2.70;;
47960;SDS011;33721;48.852;9.936;2023-05-07T07:45:42;5.78;;;2.45;;
47960;SDS011;33721;48.852;9.936;2023-05-07T07:48:08;6.20;;;2.10;;
47960;SDS011;33721;48.852;9.936;2023-05-07T07:50:34;3.28;;;2.45;;
47960;SDS011;33721;48.852;9.936;2023-05-07T07:53:00;3.70;;;2.40;;
47960;SDS011;33721;48.852;9.936;2023-05-07T07:55:25;3.92;;;2.60;;
47960;SDS011;33721;48.852;9.936;2023-05-07T07:57:52;4.88;;;2.20;;
47960;SDS011;33721;48.852;9.936;2023-05-07T08:00:17;4.32;;;2.33;;
47960;SDS011;33721;48.852;9.936;2023-05-07T08:02:43;4.70;;;2.40;;
47960;SDS011;33721;48.852;9.936;2023-05-07T08:05:09;2.88;;;2.00;;
47960;SDS011;33721;48.852;9.936;2023-05-07T08:07:34;4.32;;;1.90;;
47960;SDS011;33721;48.852;9.936;2023-05-07T08:10:00;3.40;;;1.90;;
47960;SDS011;33721;48.852;9.936;2023-05-07T08:12:27;6.90;;;2.50;;
47960;SDS011;33721;48.852;9.936;2023-05-07T08:14:52;5.60;;;2.20;;
47960;SDS011;33721;48.852;9.936;2023-05-07T08:17:18;3.33;;;2.20;;
47960;SDS011;33721;48.852;9.936;2023-05-07T08:19:44;5.75;;;2.05;;
47960;SDS011;33721;48.852;9.936;2023-05-07T08:22:10;4.88;;;2.00;;
47960;SDS011;33721;48.852;9.936;2023-05-07T08:24:36;6.35;;;2.05;;
47960;SDS011;33721;48.852;9.936;2023-05-07T08:27:01;4.18;;;2.30;;
47960;SDS011;33721;48.852;9.936;2023-05-07T08:29:27;3.90;;;2.10;;
47960;SDS011;33721;48.852;9.936;2023-05-07T08:31:53;4.07;;;2.13;;
47960;SDS011;33721;48.852;9.936;2023-05-07T08:34:19;4.57;;;2.40;;
47960;SDS011;33721;48.852;9.936;2023-05-07T08:36:44;2.20;;;1.95;;
47960;SDS011;33721;48.852;9.936;2023-05-07T08:39:13;5.65;;;2.50;;
47960;SDS011;33721;48.852;9.936;2023-05-07T08:41:40;2.42;;;2.00;;
47960;SDS011;33721;48.852;9.936;2023-05-07T08:44:06;7.30;;;2.40;;
47960;SDS011;33721;48.852;9.936;2023-05-07T08:46:37;3.80;;;2.60;;
47960;SDS011;33721;48.852;9.936;2023-05-07T08:49:04;4.07;;;2.42;;
47960;SDS011;33721;48.852;9.936;2023-05-07T08:51:29;5.72;;;2.42;;
47960;SDS011;33721;48.852;9.936;2023-05-07T08:53:56;4.93;;;2.35;;
47960;SDS011;33721;48.852;9.936;2023-05-07T08:56:22;4.50;;;2.47;;
47960;SDS011;33721;48.852;9.936;2023-05-07T08:58:48;8.45;;;1.98;;
47960;SDS011;33721;48.852;9.936;2023-05-07T09:01:14;3.35;;;1.90;;
47960;SDS011;33721;48.852;9.936;2023-05-07T09:03:42;4.07;;;1.88;;
47960;SDS011;33721;48.852;9.936;2023-05-07T09:06:09;4.07;;;2.20;;
47960;SDS011;33721;48.852;9.936;2023-05-07T09:08:35;4.47;;;2.53;;
47960;SDS011;33721;48.852;9.936;2023-05-07T09:11:01;4.82;;;1.85;;
47960;SDS011;33721;48.852;9.936;2023-05-07T09:13:27;3.35;;;1.90;;
47960;SDS011;33721;48.852;9.936;2023-05-07T09:15:54;2.35;;;1.80;;
47960;SDS011;33721;48.852;9.936;2023-05-07T09:18:20;2.88;;;2.10;;
47960;SDS011;33721;48.852;9.936;2023-05-07T09:20:45;3.90;;;2.05;;
47960;SDS011;33721;48.852;9.936;2023-05-07T09:23:11;3.80;;;1.70;;
47960;SDS011;33721;48.852;9.936;2023-05-07T09:25:37;5.90;;;2.10;;
47960;SDS011;33721;48.852;9.936;2023-05-07T09:28:03;3.35;;;1.58;;
47960;SDS011;33721;48.852;9.936;2023-05-07T09:30:31;4.22;;;2.75;;
47960;SDS011;33721;48.852;9.936;2023-05-07T09:32:57;5.70;;;2.13;;
47960;SDS011;33721;48.852;9.936;2023-05-07T09:35:24;3.53;;;2.10;;
47960;SDS011;33721;48.852;9.936;2023-05-07T09:37:56;3.85;;;2.10;;
47960;SDS011;33721;48.852;9.936;2023-05-07T09:40:25;2.85;;;2.05;;
47960;SDS011;33721;48.852;9.936;2023-05-07T09:42:52;2.55;;;2.05;;
47960;SDS011;33721;48.852;9.936;2023-05-07T09:45:21;4.65;;;2.13;;
47960;SDS011;33721;48.852;9.936;2023-05-07T09:47:53;5.85;;;2.28;;
47960;SDS011;33721;48.852;9.936;2023-05-07T09:50:22;2.83;;;2.33;;
47960;SDS011;33721;48.852;9.936;2023-05-07T09:52:52;3.33;;;2.17;;
47960;SDS011;33721;48.852;9.936;2023-05-07T09:55:18;5.65;;;1.90;;
47960;SDS011;33721;48.852;9.936;2023-05-07T09:57:44;3.05;;;2.00;;
47960;SDS011;33721;48.852;9.936;2023-05-07T10:00:11;2.88;;;1.85;;
47960;SDS011;33721;48.852;9.936;2023-05-07T10:02:37;5.25;;;1.90;;
47960;SDS011;33721;48.852;9.936;2023-05-07T10:05:11;3.13;;;2.20;;
47960;SDS011;33721;48.852;9.936;2023-05-07T10:07:39;2.63;;;2.03;;
47960;SDS011;33721;48.852;9.936;2023-05-07T10:10:05;4.75;;;2.30;;
47960;SDS011;33721;48.852;9.936;2023-05-07T10:12:32;7.55;;;3.00;;
47960;SDS011;33721;48.852;9.936;2023-05-07T10:15:04;5.38;;;1.90;;
47960;SDS011;33721;48.852;9.936;2023-05-07T10:17:35;2.92;;;2.20;;
47960;SDS011;33721;48.852;9.936;2023-05-07T10:20:02;6.55;;;2.00;;
47960;SDS011;33721;48.852;9.936;2023-05-07T10:22:29;2.63;;;1.73;;
47960;SDS011;33721;48.852;9.936;2023-05-07T10:25:03;2.28;;;1.60;;
47960;SDS011;33721;48.852;9.936;2023-05-07T10:27:36;5.38;;;2.03;;
47960;SDS011;33721;48.852;9.936;2023-05-07T10:33:04;3.50;;;1.58;;
47960;SDS011;33721;48.852;9.936;2023-05-07T10:35:37;4.10;;;2.10;;
47960;SDS011;33721;48.852;9.936;2023-05-07T10:38:05;3.55;;;1.92;;
47960;SDS011;33721;48.852;9.936;2023-05-07T10:40:31;2.67;;;1.92;;
47960;SDS011;33721;48.852;9.936;2023-05-07T10:43:01;3.08;;;1.80;;
47960;SDS011;33721;48.852;9.936;2023-05-07T10:45:30;5.03;;;1.98;;
47960;SDS011;33721;48.852;9.936;2023-05-07T10:48:09;3.80;;;2.50;;
47960;SDS011;33721;48.852;9.936;2023-05-07T10:50:39;2.25;;;1.88;;
47960;SDS011;33721;48.852;9.936;2023-05-07T10:55:50;3.75;;;2.20;;
47960;SDS011;33721;48.852;9.936;2023-05-07T10:58:36;7.85;;;2.28;;
47960;SDS011;33721;48.852;9.936;2023-05-07T11:01:02;5.78;;;2.30;;
47960;SDS011;33721;48.852;9.936;2023-05-07T11:03:28;3.10;;;2.05;;
47960;SDS011;33721;48.852;9.936;2023-05-07T11:06:10;3.72;;;2.28;;
47960;SDS011;33721;48.852;9.936;2023-05-07T11:14:09;2.88;;;2.08;;
47960;SDS011;33721;48.852;9.936;2023-05-07T11:16:35;4.85;;;2.33;;
47960;SDS011;33721;48.852;9.936;2023-05-07T11:19:03;2.47;;;1.83;;
47960;SDS011;33721;48.852;9.936;2023-05-07T11:24:00;3.90;;;2.65;;
47960;SDS011;33721;48.852;9.936;2023-05-07T11:26:27;4.25;;;2.35;;
47960;SDS011;33721;48.852;9.936;2023-05-07T11:28:55;3.65;;;2.20;;
47960;SDS011;33721;48.852;9.936;2023-05-07T11:31:22;2.45;;;2.20;;
47960;SDS011;33721;48.852;9.936;2023-05-07T11:33:51;6.45;;;2.20;;
47960;SDS011;33721;48.852;9.936;2023-05-07T11:36:18;5.15;;;2.63;;
47960;SDS011;33721;48.852;9.936;2023-05-07T11:38:44;4.07;;;2.05;;
47960;SDS011;33721;48.852;9.936;2023-05-07T11:41:10;4.20;;;2.38;;
47960;SDS011;33721;48.852;9.936;2023-05-07T11:43:36;4.72;;;2.55;;
47960;SDS011;33721;48.852;9.936;2023-05-07T11:46:08;3.70;;;2.50;;
47960;SDS011;33721;48.852;9.936;2023-05-07T11:48:35;3.20;;;2.15;;
47960;SDS011;33721;48.852;9.936;2023-05-07T11:51:02;5.25;;;2.58;;
47960;SDS011;33721;48.852;9.936;2023-05-07T11:53:36;4.55;;;2.22;;
47960;SDS011;33721;48.852;9.936;2023-05-07T11:56:06;3.88;;;2.35;;
47960;SDS011;33721;48.852;9.936;2023-05-07T11:58:34;4.70;;;2.70;;
47960;SDS011;33721;48.852;9.936;2023-05-07T12:00:59;4.88;;;2.65;;
47960;SDS011;33721;48.852;9.936;2023-05-07T12:03:25;3.90;;;2.25;;
47960;SDS011;33721;48.852;9.936;2023-05-07T12:05:50;6.55;;;2.45;;
47960;SDS011;33721;48.852;9.936;2023-05-07T12:08:20;6.43;;;2.28;;
47960;SDS011;33721;48.852;9.936;2023-05-07T12:10:48;3.95;;;2.22;;
47960;SDS011;33721;48.852;9.936;2023-05-07T12:13:18;5.25;;;2.20;;
47960;SDS011;33721;48.852;9.936;2023-05-07T12:15:51;5.53;;;2.10;;
47960;SDS011;33721;48.852;9.936;2023-05-07T12:18:18;3.30;;;2.17;;
47960;SDS011;33721;48.852;9.936;2023-05-07T12:20:45;4.05;;;1.90;;
47960;SDS011;33721;48.852;9.936;2023-05-07T12:23:11;4.65;;;2.10;;
47960;SDS011;33721;48.852;9.936;2023-05-07T12:25:38;3.67;;;2.78;;
47960;SDS011;33721;48.852;9.936;2023-05-07T12:28:05;2.33;;;1.90;;
47960;SDS011;33721;48.852;9.936;2023-05-07T12:30:53;4.28;;;2.17;;
47960;SDS011;33721;48.852;9.936;2023-05-07T12:33:19;3.25;;;2.20;;
47960;SDS011;33721;48.852;9.936;2023-05-07T12:35:48;6.45;;;2.03;;
47960;SDS011;33721;48.852;9.936;2023-05-07T12:38:15;2.95;;;2.28;;
47960;SDS011;33721;48.852;9.936;2023-05-07T12:40:46;3.65;;;2.13;;
47960;SDS011;33721;48.852;9.936;2023-05-07T12:43:19;4.35;;;2.28;;
47960;SDS011;33721;48.852;9.936;2023-05-07T12:45:47;5.68;;;2.10;;
47960;SDS011;33721;48.852;9.936;2023-05-07T12:48:14;5.25;;;2.63;;
47960;SDS011;33721;48.852;9.936;2023-05-07T12:50:40;2.38;;;1.90;;
47960;SDS011;33721;48.852;9.936;2023-05-07T12:53:06;4.72;;;2.50;;
47960;SDS011;33721;48.852;9.936;2023-05-07T12:55:40;3.40;;;2.15;;
47960;SDS011;33721;48.852;9.936;2023-05-07T12:58:16;3.70;;;2.05;;
47960;SDS011;33721;48.852;9.936;2023-05-07T13:00:49;4.28;;;2.13;;
47960;SDS011;33721;48.852;9.936;2023-05-07T13:03:26;2.28;;;1.83;;
47960;SDS011;33721;48.852;9.936;2023-05-07T13:08:30;5.53;;;2.03;;
47960;SDS011;33721;48.852;9.936;2023-05-07T13:10:57;5.03;;;2.03;;
47960;SDS011;33721;48.852;9.936;2023-05-07T13:13:25;3.53;;;2.13;;
47960;SDS011;33721;48.852;9.936;2023-05-07T13:15:51;7.30;;;2.00;;
47960;SDS011;33721;48.852;9.936;2023-05-07T13:18:17;4.80;;;2.33;;
47960;SDS011;33721;48.852;9.936;2023-05-07T13:20:42;3.05;;;1.83;;
47960;SDS011;33721;48.852;9.936;2023-05-07T13:23:08;2.35;;;1.63;;
47960;SDS011;33721;48.852;9.936;2023-05-07T13:25:34;3.67;;;2.00;;
47960;SDS011;33721;48.852;9.936;2023-05-07T13:28:00;3.92;;;1.98;;
47960;SDS011;33721;48.852;9.936;2023-05-07T13:30:25;4.00;;;1.92;;
47960;SDS011;33721;48.852;9.936;2023-05-07T13:32:53;3.17;;;2.00;;
47960;SDS011;33721;48.852;9.936;2023-05-07T13:35:20;2.80;;;2.20;;
47960;SDS011;33721;48.852;9.936;2023-05-07T13:37:46;3.45;;;2.30;;
47960;SDS011;33721;48.852;9.936;2023-05-07T13:40:13;3.20;;;1.83;;
47960;SDS011;33721;48.852;9.936;2023-05-07T13:42:39;3.10;;;2.30;;
47960;SDS011;33721;48.852;9.936;2023-05-07T13:45:05;2.80;;;2.00;;
47960;SDS011;33721;48.852;9.936;2023-05-07T13:47:31;3.33;;;2.20;;
47960;SDS011;33721;48.852;9.936;2023-05-07T13:49:56;3.00;;;1.90;;
47960;SDS011;33721;48.852;9.936;2023-05-07T13:52:22;2.38;;;2.17;;
47960;SDS011;33721;48.852;9.936;2023-05-07T13:54:48;4.10;;;2.50;;
47960;SDS011;33721;48.852;9.936;2023-05-07T13:57:13;4.85;;;2.33;;
47960;SDS011;33721;48.852;9.936;2023-05-07T13:59:40;2.75;;;2.22;;
47960;SDS011;33721;48.852;9.936;2023-05-07T14:02:05;3.42;;;2.50;;
47960;SDS011;33721;48.852;9.936;2023-05-07T14:04:31;3.08;;;2.40;;
47960;SDS011;33721;48.852;9.936;2023-05-07T14:06:57;3.38;;;2.22;;
47960;SDS011;33721;48.852;9.936;2023-05-07T14:09:22;3.42;;;2.30;;
47960;SDS011;33721;48.852;9.936;2023-05-07T14:11:48;2.10;;;1.90;;
47960;SDS011;33721;48.852;9.936;2023-05-07T14:14:16;3.80;;;2.15;;
47960;SDS011;33721;48.852;9.936;2023-05-07T14:16:42;3.42;;;2.10;;
47960;SDS011;33721;48.852;9.936;2023-05-07T14:19:08;3.22;;;2.25;;
47960;SDS011;33721;48.852;9.936;2023-05-07T14:21:34;3.08;;;2.40;;
47960;SDS011;33721;48.852;9.936;2023-05-07T14:23:59;3.50;;;2.30;;
47960;SDS011;33721;48.852;9.936;2023-05-07T14:26:25;3.63;;;2.40;;
47960;SDS011;33721;48.852;9.936;2023-05-07T14:28:52;3.72;;;2.30;;
47960;SDS011;33721;48.852;9.936;2023-05-07T14:31:19;4.65;;;2.50;;
47960;SDS011;33721;48.852;9.936;2023-05-07T14:33:46;2.70;;;2.25;;
47960;SDS011;33721;48.852;9.936;2023-05-07T14:36:11;4.50;;;2.25;;
47960;SDS011;33721;48.852;9.936;2023-05-07T14:38:37;3.08;;;2.45;;
47960;SDS011;33721;48.852;9.936;2023-05-07T14:41:03;5.05;;;2.38;;
47960;SDS011;33721;48.852;9.936;2023-05-07T14:43:28;4.93;;;2.30;;
47960;SDS011;33721;48.852;9.936;2023-05-07T14:45:54;3.63;;;2.28;;
47960;SDS011;33721;48.852;9.936;2023-05-07T14:48:20;5.80;;;2.95;;
47960;SDS011;33721;48.852;9.936;2023-05-07T14:50:48;5.30;;;2.45;;
47960;SDS011;33721;48.852;9.936;2023-05-07T14:53:15;3.40;;;2.50;;
47960;SDS011;33721;48.852;9.936;2023-05-07T14:55:41;4.53;;;2.70;;